Time;durP1;ratioP1;P1;durP2;ratioP2;P2;SDS_P1;SDS_P2;PMS_P1;PMS_P2;Temp;Humidity;BMP_temperature;BMP_pressure;BME280_temperature;BME280_humidity;BME280_pressure;Samples;Min_cycle;Max_cycle;Signal;HPM_P1;HPM_P2
2021/07/31 00:00:41;;;;;;;18.08;11.52;;;;;;;;;;5039314;28;20171;-84
2021/07/31 00:03:07;;;;;;;17.77;11.43;;;;;;;;;;5057549;28;20342;-83
2021/07/31 00:05:33;;;;;;;16.58;10.68;;;;;;;;;;5057804;28;20299;-84
2021/07/31 00:08:00;;;;;;;15.73;11.27;;;;;;;;;;5057637;28;20043;-83
2021/07/31 00:10:26;;;;;;;20.05;11.25;;;;;;;;;;5057421;28;20028;-84
2021/07/31 00:12:52;;;;;;;16.50;10.85;;;;;;;;;;5057823;28;20024;-84
2021/07/31 00:15:18;;;;;;;17.85;11.05;;;;;;;;;;5057670;28;20051;-84
2021/07/31 00:17:44;;;;;;;16.25;10.57;;;;;;;;;;5039907;28;20071;-84
2021/07/31 00:20:10;;;;;;;15.45;9.95;;;;;;;;;;5039744;28;20407;-83
2021/07/31 00:22:36;;;;;;;14.48;10.00;;;;;;;;;;5057498;28;20104;-83
2021/07/31 00:25:02;;;;;;;15.13;10.38;;;;;;;;;;5057218;28;20054;-84
2021/07/31 00:27:28;;;;;;;17.85;10.60;;;;;;;;;;5057512;28;20055;-83
2021/07/31 00:29:54;;;;;;;15.02;10.20;;;;;;;;;;5057448;28;20026;-84
2021/07/31 00:32:20;;;;;;;18.90;10.13;;;;;;;;;;5057265;28;20318;-83
2021/07/31 00:34:46;;;;;;;12.05;9.85;;;;;;;;;;5057501;28;20025;-84
2021/07/31 00:37:12;;;;;;;15.30;10.20;;;;;;;;;;5057370;28;20021;-83
2021/07/31 00:39:38;;;;;;;10.75;9.57;;;;;;;;;;5057488;28;20027;-84
2021/07/31 00:42:08;;;;;;;12.07;10.30;;;;;;;;;;5039586;28;20032;-84
2021/07/31 00:44:35;;;;;;;17.45;10.05;;;;;;;;;;5057238;28;20021;-85
2021/07/31 00:47:02;;;;;;;14.98;10.45;;;;;;;;;;5041588;28;20044;-84
2021/07/31 00:49:29;;;;;;;13.85;9.90;;;;;;;;;;5061267;28;20501;-85
2021/07/31 00:51:55;;;;;;;16.65;10.43;;;;;;;;;;5061615;28;20345;-84
2021/07/31 00:54:22;;;;;;;15.77;9.90;;;;;;;;;;5060907;28;20037;-84
2021/07/31 00:56:48;;;;;;;14.45;10.30;;;;;;;;;;5043458;28;20098;-84
2021/07/31 00:59:15;;;;;;;18.80;10.65;;;;;;;;;;5043391;28;20021;-85
2021/07/31 01:01:41;;;;;;;14.60;11.43;;;;;;;;;;5061025;28;20021;-85
2021/07/31 01:10:14;;;;;;;21.88;10.77;;;;;;;;;;5060947;28;20063;-85
2021/07/31 01:12:41;;;;;;;12.90;9.77;;;;;;;;;;5060939;28;20035;-84
2021/07/31 01:15:07;;;;;;;17.25;10.57;;;;;;;;;;5060957;28;20120;-84
2021/07/31 01:17:33;;;;;;;21.10;10.80;;;;;;;;;;5061021;28;20024;-84
2021/07/31 01:20:18;;;;;;;18.98;11.45;;;;;;;;;;5060818;28;20021;-84
2021/07/31 01:22:44;;;;;;;16.95;10.57;;;;;;;;;;5060638;28;20017;-84
2021/07/31 01:25:10;;;;;;;16.50;10.40;;;;;;;;;;5060399;28;20071;-83
2021/07/31 01:27:38;;;;;;;18.90;11.23;;;;;;;;;;5060587;28;20044;-84
2021/07/31 01:30:04;;;;;;;13.10;10.57;;;;;;;;;;5060725;28;20041;-84
2021/07/31 01:32:30;;;;;;;16.80;10.50;;;;;;;;;;5060311;28;20052;-84
2021/07/31 01:35:15;;;;;;;17.77;11.80;;;;;;;;;;5060568;28;20041;-83
2021/07/31 01:37:41;;;;;;;17.48;10.43;;;;;;;;;;5060599;28;20032;-83
2021/07/31 01:40:07;;;;;;;13.13;10.75;;;;;;;;;;5060556;28;20028;-85
2021/07/31 01:42:33;;;;;;;13.50;10.65;;;;;;;;;;5043181;28;20050;-85
2021/07/31 01:44:59;;;;;;;23.48;11.27;;;;;;;;;;5060314;28;20029;-84
2021/07/31 01:47:25;;;;;;;16.25;10.90;;;;;;;;;;5060415;28;20024;-85
2021/07/31 01:53:27;;;;;;;15.88;10.82;;;;;;;;;;5060239;28;20032;-84
2021/07/31 01:55:53;;;;;;;14.88;9.93;;;;;;;;;;5042184;28;20120;-84
2021/07/31 01:58:19;;;;;;;15.82;10.77;;;;;;;;;;5059165;28;20025;-84
2021/07/31 02:00:45;;;;;;;14.82;10.20;;;;;;;;;;5060109;28;20033;-84
2021/07/31 02:03:11;;;;;;;12.00;9.48;;;;;;;;;;5059799;28;20028;-84
2021/07/31 02:05:37;;;;;;;15.10;10.32;;;;;;;;;;5059376;28;20036;-84
2021/07/31 02:08:04;;;;;;;14.90;9.77;;;;;;;;;;5059502;28;20414;-83
2021/07/31 02:10:30;;;;;;;12.77;9.82;;;;;;;;;;5041878;28;20043;-83
2021/07/31 02:12:56;;;;;;;14.80;9.75;;;;;;;;;;5059771;28;20021;-83
2021/07/31 02:15:22;;;;;;;15.80;9.38;;;;;;;;;;5059400;28;20124;-83
2021/07/31 02:17:48;;;;;;;17.15;9.70;;;;;;;;;;5059525;28;20438;-83
2021/07/31 02:20:14;;;;;;;16.90;10.38;;;;;;;;;;5059647;28;20021;-84
2021/07/31 02:22:40;;;;;;;13.27;9.95;;;;;;;;;;5059451;28;20017;-83
2021/07/31 02:25:07;;;;;;;15.93;9.25;;;;;;;;;;5059628;28;20115;-84
2021/07/31 02:27:33;;;;;;;17.73;9.55;;;;;;;;;;5041620;28;20119;-83
2021/07/31 02:29:59;;;;;;;13.55;9.60;;;;;;;;;;5059618;28;20025;-84
2021/07/31 02:32:25;;;;;;;16.85;9.73;;;;;;;;;;5059534;28;20021;-83
2021/07/31 02:34:51;;;;;;;11.68;9.82;;;;;;;;;;5059290;28;20074;-83
2021/07/31 02:37:17;;;;;;;16.73;9.30;;;;;;;;;;5059371;28;20025;-84
2021/07/31 02:39:43;;;;;;;19.33;10.07;;;;;;;;;;5059004;28;20063;-84
2021/07/31 02:42:09;;;;;;;14.95;9.85;;;;;;;;;;5059101;28;20094;-83
2021/07/31 02:44:36;;;;;;;15.50;9.65;;;;;;;;;;5058924;28;20025;-83
2021/07/31 02:47:02;;;;;;;17.60;10.60;;;;;;;;;;5059219;28;20029;-83
2021/07/31 02:49:28;;;;;;;20.08;9.85;;;;;;;;;;5059224;28;20025;-83
2021/07/31 02:51:54;;;;;;;24.58;10.02;;;;;;;;;;5059140;28;20048;-84
2021/07/31 02:54:20;;;;;;;13.80;9.63;;;;;;;;;;5058744;28;20053;-83
2021/07/31 02:56:46;;;;;;;18.65;10.40;;;;;;;;;;5058662;28;20045;-83
2021/07/31 02:59:12;;;;;;;17.90;10.13;;;;;;;;;;5058856;28;20021;-83
2021/07/31 03:01:38;;;;;;;20.15;10.40;;;;;;;;;;5040392;28;20331;-84
2021/07/31 03:04:41;;;;;;;15.88;9.90;;;;;;;;;;5058948;28;20292;-83
2021/07/31 03:07:07;;;;;;;13.73;10.05;;;;;;;;;;5040849;28;20079;-83
2021/07/31 03:09:33;;;;;;;15.07;9.55;;;;;;;;;;5058474;28;20021;-83
2021/07/31 03:12:00;;;;;;;14.13;9.25;;;;;;;;;;5058713;28;20025;-83
2021/07/31 03:14:26;;;;;;;15.55;8.57;;;;;;;;;;5058463;28;20029;-84
2021/07/31 03:16:52;;;;;;;17.55;9.50;;;;;;;;;;5058631;28;20021;-83
2021/07/31 03:19:18;;;;;;;12.43;8.77;;;;;;;;;;5058227;28;20063;-84
2021/07/31 03:21:44;;;;;;;15.63;8.65;;;;;;;;;;5058185;28;20414;-84
2021/07/31 03:24:10;;;;;;;12.77;9.05;;;;;;;;;;5058120;28;20431;-83
2021/07/31 03:26:36;;;;;;;16.60;8.88;;;;;;;;;;5040602;28;20335;-83
2021/07/31 03:29:02;;;;;;;17.17;8.43;;;;;;;;;;5058471;28;20319;-84
2021/07/31 03:31:28;;;;;;;18.02;7.65;;;;;;;;;;5057882;28;20032;-83
2021/07/31 03:33:54;;;;;;;16.80;8.77;;;;;;;;;;5040260;28;20032;-83
2021/07/31 03:36:21;;;;;;;18.35;8.98;;;;;;;;;;5058266;28;20025;-83
2021/07/31 03:38:47;;;;;;;14.02;8.10;;;;;;;;;;5058144;28;20039;-83
2021/07/31 03:41:13;;;;;;;17.55;8.48;;;;;;;;;;5057868;28;20048;-83
2021/07/31 03:43:39;;;;;;;14.88;8.35;;;;;;;;;;5058006;28;20021;-83
2021/07/31 03:46:06;;;;;;;17.33;8.60;;;;;;;;;;5058194;28;20049;-83
2021/07/31 03:48:32;;;;;;;16.08;8.30;;;;;;;;;;5040152;28;20070;-83
2021/07/31 03:50:59;;;;;;;17.40;8.43;;;;;;;;;;5057602;28;20032;-83
2021/07/31 03:53:25;;;;;;;16.48;8.20;;;;;;;;;;5039967;28;20464;-83
2021/07/31 03:55:51;;;;;;;20.55;7.95;;;;;;;;;;5057343;28;20343;-82
2021/07/31 03:58:17;;;;;;;15.18;7.90;;;;;;;;;;5057441;28;20407;-83
2021/07/31 04:00:43;;;;;;;14.05;7.55;;;;;;;;;;5039741;28;20025;-83
2021/07/31 04:03:10;;;;;;;14.52;7.57;;;;;;;;;;5039899;28;20032;-83
2021/07/31 04:05:55;;;;;;;13.77;7.63;;;;;;;;;;5039870;28;20441;-83
2021/07/31 04:08:21;;;;;;;15.43;7.75;;;;;;;;;;5057300;28;20475;-83
2021/07/31 04:10:47;;;;;;;12.10;7.80;;;;;;;;;;5057396;28;20451;-83
2021/07/31 04:13:13;;;;;;;16.75;7.55;;;;;;;;;;5057302;28;20307;-83
2021/07/31 04:15:41;;;;;;;10.32;7.50;;;;;;;;;;5057346;28;20387;-83
2021/07/31 04:18:07;;;;;;;10.77;8.00;;;;;;;;;;5057316;28;20021;-83
2021/07/31 04:20:52;;;;;;;14.38;7.47;;;;;;;;;;5056806;28;20402;-83
2021/07/31 04:23:18;;;;;;;12.63;7.55;;;;;;;;;;5039589;28;20052;-83
2021/07/31 04:25:44;;;;;;;13.18;7.60;;;;;;;;;;5057163;28;20123;-83
2021/07/31 04:28:10;;;;;;;14.88;7.78;;;;;;;;;;5057168;28;20060;-83
2021/07/31 04:30:36;;;;;;;15.32;7.95;;;;;;;;;;5057390;28;20316;-83
2021/07/31 04:33:02;;;;;;;14.30;7.93;;;;;;;;;;5057187;28;20021;-83
2021/07/31 04:35:29;;;;;;;14.07;7.95;;;;;;;;;;5039051;28;20100;-83
2021/07/31 04:37:55;;;;;;;15.23;8.07;;;;;;;;;;5039451;28;20029;-82
2021/07/31 04:40:21;;;;;;;14.50;7.28;;;;;;;;;;5057094;28;20082;-83
2021/07/31 04:42:47;;;;;;;15.77;7.80;;;;;;;;;;5057327;28;20094;-83
2021/07/31 05:06:30;;;;;;;16.92;12.05;;;;;;;;;;5074789;28;20384;-85
2021/07/31 05:08:57;;;;;;;19.38;12.43;;;;;;;;;;5074563;28;20339;-84
2021/07/31 05:11:23;;;;;;;20.60;9.60;;;;;;;;;;5074273;28;20414;-84
2021/07/31 05:13:49;;;;;;;14.93;9.50;;;;;;;;;;5074796;28;20021;-83
2021/07/31 05:16:16;;;;;;;19.30;9.45;;;;;;;;;;5074268;28;20066;-84
2021/07/31 05:18:42;;;;;;;16.90;8.95;;;;;;;;;;5074334;28;20017;-85
2021/07/31 05:21:08;;;;;;;20.52;10.27;;;;;;;;;;5073579;28;20078;-85
2021/07/31 05:23:34;;;;;;;18.23;10.38;;;;;;;;;;5074222;28;20500;-84
2021/07/31 05:26:00;;;;;;;13.48;10.02;;;;;;;;;;5074058;28;20036;-84
2021/07/31 05:28:27;;;;;;;20.48;10.40;;;;;;;;;;5074096;28;20407;-84
2021/07/31 05:30:53;;;;;;;16.25;9.63;;;;;;;;;;5074291;28;20028;-85
2021/07/31 05:33:19;;;;;;;15.38;8.70;;;;;;;;;;5074761;28;20021;-88
2021/07/31 05:35:45;;;;;;;53.85;32.10;;;;;;;;;;5074299;28;20032;-82
2021/07/31 05:38:11;;;;;;;43.40;25.10;;;;;;;;;;5074077;28;20063;-84
2021/07/31 05:40:37;;;;;;;19.67;12.55;;;;;;;;;;5073740;28;20021;-84
2021/07/31 05:43:03;;;;;;;18.35;9.10;;;;;;;;;;5073944;28;20314;-84
2021/07/31 05:45:29;;;;;;;17.27;9.05;;;;;;;;;;5073559;28;20040;-84
2021/07/31 05:47:56;;;;;;;14.95;8.13;;;;;;;;;;5073783;28;20028;-84
2021/07/31 05:50:23;;;;;;;20.73;9.38;;;;;;;;;;5072560;28;20036;-84
2021/07/31 05:52:49;;;;;;;32.78;22.73;;;;;;;;;;5072693;28;20033;-84
2021/07/31 05:55:15;;;;;;;27.70;18.05;;;;;;;;;;5073541;28;20032;-85
2021/07/31 05:57:41;;;;;;;21.75;13.65;;;;;;;;;;5073577;28;20025;-84
2021/07/31 06:00:08;;;;;;;30.42;21.70;;;;;;;;;;5073399;28;20021;-84
2021/07/31 06:02:34;;;;;;;40.08;29.90;;;;;;;;;;5073553;28;20337;-84
2021/07/31 06:05:00;;;;;;;94.10;77.65;;;;;;;;;;5073101;28;20052;-84
2021/07/31 06:07:26;;;;;;;29.05;19.15;;;;;;;;;;5060081;28;20314;-84
2021/07/31 06:09:53;;;;;;;39.17;28.48;;;;;;;;;;5060096;28;20336;-84
2021/07/31 06:12:21;;;;;;;28.52;15.38;;;;;;;;;;5060115;28;20055;-84
2021/07/31 06:14:47;;;;;;;25.38;11.60;;;;;;;;;;5059948;28;20067;-85
2021/07/31 06:17:13;;;;;;;25.58;12.85;;;;;;;;;;5059887;28;20013;-87
2021/07/31 06:19:40;;;;;;;22.33;11.60;;;;;;;;;;5059817;28;20070;-84
2021/07/31 06:22:06;;;;;;;19.90;14.05;;;;;;;;;;5058715;28;20078;-84
2021/07/31 06:24:32;;;;;;;23.15;13.00;;;;;;;;;;5059553;28;20104;-83
2021/07/31 06:26:58;;;;;;;17.98;11.00;;;;;;;;;;5058586;28;20025;-84
2021/07/31 06:29:24;;;;;;;28.60;15.80;;;;;;;;;;5059639;28;20082;-84
2021/07/31 06:31:51;;;;;;;16.33;11.15;;;;;;;;;;5058831;28;20131;-83
2021/07/31 06:34:17;;;;;;;23.73;15.98;;;;;;;;;;5058552;28;20480;-84
2021/07/31 06:36:43;;;;;;;91.45;67.90;;;;;;;;;;5058480;28;20048;-83
2021/07/31 06:39:10;;;;;;;36.35;25.35;;;;;;;;;;5059146;28;20017;-83
2021/07/31 06:41:36;;;;;;;22.02;11.90;;;;;;;;;;5059359;28;20434;-84
2021/07/31 06:44:02;;;;;;;17.13;12.00;;;;;;;;;;5058518;28;20374;-84
2021/07/31 06:46:29;;;;;;;23.48;14.38;;;;;;;;;;5059061;28;20025;-83
2021/07/31 06:48:56;;;;;;;22.85;12.60;;;;;;;;;;5059181;28;20067;-83
2021/07/31 06:51:22;;;;;;;15.23;11.27;;;;;;;;;;5059083;28;20033;-83
2021/07/31 06:53:49;;;;;;;20.92;11.77;;;;;;;;;;5057957;28;20025;-83
2021/07/31 06:56:15;;;;;;;21.05;11.02;;;;;;;;;;5058348;28;20061;-83
2021/07/31 06:58:41;;;;;;;19.17;11.32;;;;;;;;;;5059061;28;20017;-83
2021/07/31 07:01:11;;;;;;;23.38;11.57;;;;;;;;;;5059033;28;20032;-83
2021/07/31 07:03:37;;;;;;;20.08;11.57;;;;;;;;;;5058879;28;20025;-82
2021/07/31 07:06:07;;;;;;;21.60;10.43;;;;;;;;;;5057781;28;20033;-82
2021/07/31 07:08:33;;;;;;;19.50;9.80;;;;;;;;;;5057203;28;20021;-83
2021/07/31 07:11:00;;;;;;;15.00;9.80;;;;;;;;;;5055288;28;20033;-83
2021/07/31 07:13:26;;;;;;;14.13;9.50;;;;;;;;;;5058869;28;20021;-83
2021/07/31 07:15:53;;;;;;;13.02;10.15;;;;;;;;;;5058486;28;20031;-83
2021/07/31 07:18:19;;;;;;;13.23;10.15;;;;;;;;;;5057374;28;20067;-82
2021/07/31 07:20:45;;;;;;;16.75;9.55;;;;;;;;;;5058393;28;20036;-82
2021/07/31 07:23:11;;;;;;;15.23;10.63;;;;;;;;;;5058340;28;20025;-83
2021/07/31 07:25:41;;;;;;;11.85;9.52;;;;;;;;;;5057270;28;20029;-83
2021/07/31 07:28:07;;;;;;;16.80;9.65;;;;;;;;;;5058318;28;20049;-83
2021/07/31 07:30:33;;;;;;;13.38;9.45;;;;;;;;;;5058326;28;20322;-83
2021/07/31 07:33:00;;;;;;;15.45;10.18;;;;;;;;;;5058251;28;20417;-82
2021/07/31 07:35:26;;;;;;;15.25;9.60;;;;;;;;;;5058466;28;20311;-82
2021/07/31 07:37:52;;;;;;;15.43;9.32;;;;;;;;;;5058472;28;20047;-83
2021/07/31 07:40:18;;;;;;;13.98;9.60;;;;;;;;;;5057897;28;20025;-82
2021/07/31 07:42:44;;;;;;;14.55;9.52;;;;;;;;;;5058073;28;20027;-82
2021/07/31 07:45:10;;;;;;;15.27;9.68;;;;;;;;;;5057995;28;20041;-82
2021/07/31 07:47:36;;;;;;;19.15;10.27;;;;;;;;;;5057898;28;20029;-82
2021/07/31 07:50:03;;;;;;;12.90;9.40;;;;;;;;;;5057877;28;20060;-82
2021/07/31 07:52:29;;;;;;;15.77;9.63;;;;;;;;;;5057850;28;20033;-83
2021/07/31 07:54:55;;;;;;;17.33;10.32;;;;;;;;;;5057370;28;20021;-82
2021/07/31 07:57:22;;;;;;;13.98;9.55;;;;;;;;;;5056721;28;20025;-82
2021/07/31 07:59:48;;;;;;;15.32;9.57;;;;;;;;;;5057680;28;20403;-82
2021/07/31 08:02:15;;;;;;;15.40;9.45;;;;;;;;;;5057278;28;20033;-82
2021/07/31 08:04:41;;;;;;;13.77;10.35;;;;;;;;;;5056818;28;20048;-81
2021/07/31 08:07:10;;;;;;;18.48;9.30;;;;;;;;;;5056563;28;20410;-82
2021/07/31 08:09:37;;;;;;;12.70;9.13;;;;;;;;;;5057497;28;20036;-83
2021/07/31 08:12:04;;;;;;;14.15;9.07;;;;;;;;;;5057626;28;20021;-83
2021/07/31 08:14:30;;;;;;;18.95;9.70;;;;;;;;;;5057556;28;20075;-83
2021/07/31 08:16:57;;;;;;;18.63;9.07;;;;;;;;;;5057391;28;20028;-82
2021/07/31 08:19:23;;;;;;;17.73;9.82;;;;;;;;;;5057274;28;20406;-82
2021/07/31 08:21:49;;;;;;;14.15;9.23;;;;;;;;;;5056133;28;20037;-82
2021/07/31 08:24:16;;;;;;;16.77;9.95;;;;;;;;;;5056234;28;20033;-82
2021/07/31 08:26:43;;;;;;;13.57;8.90;;;;;;;;;;5057456;28;20021;-82
2021/07/31 08:29:10;;;;;;;17.33;10.35;;;;;;;;;;5057046;28;20032;-82
2021/07/31 08:31:41;;;;;;;14.25;8.57;;;;;;;;;;5056435;28;20033;-83
2021/07/31 08:34:11;;;;;;;14.73;9.23;;;;;;;;;;5057245;28;20037;-83
2021/07/31 08:36:37;;;;;;;12.53;8.70;;;;;;;;;;5057407;28;20029;-83
2021/07/31 08:39:04;;;;;;;11.52;8.85;;;;;;;;;;5057239;28;20024;-83
2021/07/31 08:41:30;;;;;;;11.98;8.75;;;;;;;;;;5057058;28;20025;-83
2021/07/31 08:43:56;;;;;;;13.98;8.85;;;;;;;;;;5055907;28;20056;-83
2021/07/31 08:46:22;;;;;;;10.50;8.35;;;;;;;;;;5057014;28;20386;-83
2021/07/31 08:48:49;;;;;;;16.55;8.90;;;;;;;;;;5057122;28;20025;-82
2021/07/31 08:51:16;;;;;;;14.55;9.43;;;;;;;;;;5056998;28;20032;-83
2021/07/31 08:53:42;;;;;;;16.65;8.65;;;;;;;;;;5056895;28;20021;-82
2021/07/31 08:56:08;;;;;;;14.18;9.23;;;;;;;;;;5057014;28;20033;-83
2021/07/31 08:58:34;;;;;;;12.10;9.35;;;;;;;;;;5055901;28;20040;-82
2021/07/31 09:01:00;;;;;;;13.80;9.77;;;;;;;;;;5056890;28;20292;-82
2021/07/31 09:03:26;;;;;;;12.85;8.95;;;;;;;;;;5055829;28;20029;-83
2021/07/31 09:05:53;;;;;;;14.70;9.05;;;;;;;;;;5056694;28;20099;-82
2021/07/31 09:08:19;;;;;;;11.50;9.05;;;;;;;;;;5056864;28;20082;-82
2021/07/31 09:10:46;;;;;;;13.95;9.43;;;;;;;;;;5056970;28;20032;-83
2021/07/31 09:13:16;;;;;;;16.20;9.48;;;;;;;;;;5056621;28;20029;-83
2021/07/31 09:15:44;;;;;;;18.15;10.40;;;;;;;;;;5056519;28;20035;-83
2021/07/31 09:18:29;;;;;;;16.98;9.75;;;;;;;;;;5056744;28;20025;-83
2021/07/31 09:32:01;;;;;;;15.25;9.45;;;;;;;;;;5115180;27;20385;-83
2021/07/31 09:34:34;;;;;;;15.52;9.35;;;;;;;;;;5114852;28;20408;-83
2021/07/31 09:37:06;;;;;;;15.07;9.40;;;;;;;;;;5113779;28;20027;-83
2021/07/31 09:39:47;;;;;;;16.40;9.77;;;;;;;;;;5114844;28;20069;-83
2021/07/31 09:42:32;;;;;;;18.05;8.65;;;;;;;;;;5114626;28;20082;-83
2021/07/31 09:44:59;;;;;;;11.00;8.13;;;;;;;;;;5114694;28;20020;-83
2021/07/31 09:47:25;;;;;;;12.13;9.10;;;;;;;;;;5113753;28;20047;-83
2021/07/31 09:49:53;;;;;;;16.58;9.23;;;;;;;;;;5114352;28;20024;-83
2021/07/31 09:52:20;;;;;;;19.20;8.77;;;;;;;;;;5114771;28;20012;-83
2021/07/31 09:54:46;;;;;;;15.20;10.27;;;;;;;;;;5113359;28;20032;-83
2021/07/31 09:57:13;;;;;;;17.27;9.25;;;;;;;;;;5114600;28;20020;-83
2021/07/31 09:59:50;;;;;;;14.38;8.30;;;;;;;;;;5114149;28;20032;-83
2021/07/31 10:02:20;;;;;;;21.13;8.23;;;;;;;;;;5114338;28;20028;-83
2021/07/31 10:04:46;;;;;;;10.98;7.65;;;;;;;;;;5113184;28;20016;-83
2021/07/31 10:07:16;;;;;;;16.50;8.25;;;;;;;;;;5114340;28;20481;-84
2021/07/31 10:09:45;;;;;;;10.07;7.97;;;;;;;;;;5114307;28;20070;-84
2021/07/31 10:12:15;;;;;;;9.07;7.25;;;;;;;;;;5114017;28;20106;-83
2021/07/31 10:14:41;;;;;;;14.52;8.13;;;;;;;;;;5113028;28;20062;-83
2021/07/31 10:17:08;;;;;;;11.77;8.20;;;;;;;;;;5112957;28;20039;-83
2021/07/31 10:19:52;;;;;;;14.98;8.00;;;;;;;;;;5112866;28;20048;-83
2021/07/31 10:22:19;;;;;;;9.63;7.88;;;;;;;;;;5113905;28;20020;-83
2021/07/31 10:24:54;;;;;;;14.85;8.50;;;;;;;;;;5113966;28;20032;-83
2021/07/31 10:27:24;;;;;;;12.13;7.93;;;;;;;;;;5112837;28;20032;-83
2021/07/31 10:29:51;;;;;;;13.77;7.93;;;;;;;;;;5113828;28;20089;-82
2021/07/31 10:32:39;;;;;;;16.90;8.57;;;;;;;;;;5103300;28;20024;-83
2021/07/31 10:35:06;;;;;;;11.90;8.18;;;;;;;;;;5100192;28;20032;-83
2021/07/31 10:37:34;;;;;;;11.32;8.02;;;;;;;;;;5100139;28;20039;-83
2021/07/31 10:40:01;;;;;;;15.25;7.75;;;;;;;;;;5098890;28;20024;-83
2021/07/31 10:42:27;;;;;;;16.80;8.43;;;;;;;;;;5100149;28;20413;-83
2021/07/31 10:45:22;;;;;;;14.75;8.32;;;;;;;;;;5099960;28;20024;-83
2021/07/31 10:47:49;;;;;;;12.82;8.45;;;;;;;;;;5097021;28;20119;-83
2021/07/31 10:50:24;;;;;;;11.73;8.25;;;;;;;;;;5100006;28;20103;-83
2021/07/31 10:52:51;;;;;;;17.27;8.38;;;;;;;;;;5100025;28;20028;-83
2021/07/31 10:55:21;;;;;;;11.40;8.18;;;;;;;;;;5099687;28;20054;-83
2021/07/31 10:57:53;;;;;;;13.10;8.70;;;;;;;;;;5099103;28;20095;-83
2021/07/31 11:00:23;;;;;;;10.70;8.15;;;;;;;;;;5099849;28;20032;-83
2021/07/31 11:02:49;;;;;;;14.77;8.15;;;;;;;;;;5099678;28;20024;-83
2021/07/31 11:05:15;;;;;;;15.10;7.53;;;;;;;;;;5099673;28;20423;-83
2021/07/31 11:07:57;;;;;;;11.30;7.68;;;;;;;;;;5099845;28;20043;-83
2021/07/31 11:10:45;;;;;;;10.00;7.18;;;;;;;;;;5098848;28;20063;-83
2021/07/31 11:13:11;;;;;;;13.25;6.80;;;;;;;;;;5098369;28;20513;-83
2021/07/31 11:15:37;;;;;;;11.18;7.22;;;;;;;;;;5099434;28;20032;-83
2021/07/31 11:18:04;;;;;;;8.60;6.90;;;;;;;;;;5099281;28;20483;-84
2021/07/31 11:20:32;;;;;;;9.32;7.78;;;;;;;;;;5099437;28;20020;-84
2021/07/31 11:23:02;;;;;;;14.15;7.82;;;;;;;;;;5099103;28;20020;-83
2021/07/31 11:25:28;;;;;;;14.48;7.70;;;;;;;;;;5099206;28;20024;-83
2021/07/31 11:28:02;;;;;;;9.23;7.00;;;;;;;;;;5099253;28;20111;-83
2021/07/31 11:30:44;;;;;;;10.77;7.40;;;;;;;;;;5098131;28;20131;-83
2021/07/31 11:33:20;;;;;;;10.43;6.82;;;;;;;;;;5099091;28;20051;-83
2021/07/31 11:35:46;;;;;;;8.35;6.93;;;;;;;;;;5098916;28;20020;-83
2021/07/31 11:38:32;;;;;;;9.95;7.68;;;;;;;;;;5098753;28;20107;-83
2021/07/31 11:40:58;;;;;;;11.82;6.68;;;;;;;;;;5098806;28;20107;-83
2021/07/31 11:43:24;;;;;;;11.85;6.85;;;;;;;;;;5097985;28;20019;-83
2021/07/31 11:45:50;;;;;;;11.38;6.40;;;;;;;;;;5098857;28;20432;-83
2021/07/31 11:48:16;;;;;;;11.23;6.80;;;;;;;;;;5098936;28;20104;-83
2021/07/31 11:51:02;;;;;;;11.00;7.40;;;;;;;;;;5098710;28;20443;-83
2021/07/31 11:53:28;;;;;;;13.15;7.15;;;;;;;;;;5098807;28;20052;-83
2021/07/31 11:56:13;;;;;;;14.35;6.97;;;;;;;;;;5097741;28;20024;-83
2021/07/31 11:58:41;;;;;;;11.10;6.80;;;;;;;;;;5098629;28;20350;-83
2021/07/31 12:01:07;;;;;;;11.85;6.68;;;;;;;;;;5098425;28;20326;-83
2021/07/31 12:03:52;;;;;;;9.10;7.15;;;;;;;;;;5097680;28;20056;-83
2021/07/31 12:06:27;;;;;;;10.88;7.10;;;;;;;;;;5098535;28;20028;-83
2021/07/31 12:08:57;;;;;;;12.50;7.28;;;;;;;;;;5098395;28;20020;-83
2021/07/31 12:11:35;;;;;;;8.18;6.65;;;;;;;;;;5098186;28;20024;-83
2021/07/31 12:14:02;;;;;;;9.85;6.95;;;;;;;;;;5097371;28;20071;-83
2021/07/31 12:16:29;;;;;;;8.77;6.32;;;;;;;;;;5098107;28;20024;-83
2021/07/31 12:18:56;;;;;;;12.07;6.68;;;;;;;;;;5098294;28;20035;-83
2021/07/31 12:21:26;;;;;;;12.88;7.30;;;;;;;;;;5098058;28;20032;-83
2021/07/31 12:23:52;;;;;;;10.97;6.67;;;;;;;;;;5097956;28;20020;-83
2021/07/31 12:26:30;;;;;;;9.23;6.35;;;;;;;;;;5097973;28;20161;-84
2021/07/31 12:28:57;;;;;;;9.63;6.60;;;;;;;;;;5098013;28;20043;-83
2021/07/31 12:31:27;;;;;;;12.10;6.78;;;;;;;;;;5097786;28;20076;-83
2021/07/31 12:33:53;;;;;;;7.60;6.20;;;;;;;;;;5098048;28;20111;-83
2021/07/31 12:36:20;;;;;;;15.30;6.57;;;;;;;;;;5097842;28;20027;-84
2021/07/31 12:38:46;;;;;;;11.18;6.82;;;;;;;;;;5097877;28;20028;-83
2021/07/31 12:41:12;;;;;;;7.55;6.78;;;;;;;;;;5097799;28;20059;-83
2021/07/31 12:43:38;;;;;;;9.43;6.13;;;;;;;;;;5097723;28;20156;-83
2021/07/31 12:46:05;;;;;;;7.43;6.10;;;;;;;;;;5097548;28;20237;-83
2021/07/31 12:48:31;;;;;;;7.50;6.07;;;;;;;;;;5097755;28;20031;-83
2021/07/31 12:50:58;;;;;;;10.43;6.38;;;;;;;;;;5097587;28;20499;-84
2021/07/31 12:53:25;;;;;;;9.48;6.10;;;;;;;;;;5097627;28;20040;-83
2021/07/31 12:55:53;;;;;;;7.80;6.00;;;;;;;;;;5097471;28;20044;-83
2021/07/31 12:58:19;;;;;;;8.70;6.38;;;;;;;;;;5097627;28;20299;-84
2021/07/31 13:00:45;;;;;;;10.88;6.03;;;;;;;;;;5097697;28;20040;-83
2021/07/31 13:03:12;;;;;;;6.70;5.85;;;;;;;;;;5096361;28;20345;-83
2021/07/31 13:05:40;;;;;;;7.55;6.20;;;;;;;;;;5096638;28;20035;-83
2021/07/31 13:08:06;;;;;;;7.72;5.82;;;;;;;;;;5097307;28;20466;-83
2021/07/31 13:10:36;;;;;;;9.20;6.28;;;;;;;;;;5097290;28;20355;-83
2021/07/31 13:13:03;;;;;;;12.25;6.57;;;;;;;;;;5097298;28;20024;-83
2021/07/31 13:15:29;;;;;;;9.68;6.65;;;;;;;;;;5097391;28;20093;-83
2021/07/31 13:17:55;;;;;;;7.18;5.90;;;;;;;;;;5097475;28;20032;-83
2021/07/31 13:20:21;;;;;;;8.90;5.85;;;;;;;;;;5096309;28;20063;-83
2021/07/31 13:22:48;;;;;;;11.13;6.68;;;;;;;;;;5096188;28;20020;-83
2021/07/31 13:25:14;;;;;;;9.63;6.32;;;;;;;;;;5097129;28;20016;-83
2021/07/31 13:27:40;;;;;;;8.75;6.72;;;;;;;;;;5096272;28;20032;-83
2021/07/31 13:30:07;;;;;;;8.50;5.97;;;;;;;;;;5096913;28;20052;-83
2021/07/31 13:32:33;;;;;;;9.88;5.82;;;;;;;;;;5097393;28;20028;-84
2021/07/31 13:35:00;;;;;;;6.82;5.97;;;;;;;;;;5096903;28;20034;-83
2021/07/31 13:37:36;;;;;;;8.73;5.90;;;;;;;;;;5097313;28;20031;-83
2021/07/31 13:40:16;;;;;;;12.73;5.70;;;;;;;;;;5096992;28;20016;-83
2021/07/31 13:42:46;;;;;;;7.17;5.73;;;;;;;;;;5096041;28;20043;-83
2021/07/31 13:45:13;;;;;;;8.20;5.65;;;;;;;;;;5097265;28;20032;-84
2021/07/31 13:47:39;;;;;;;9.73;5.90;;;;;;;;;;5097160;28;20024;-83
2021/07/31 13:50:08;;;;;;;9.48;5.72;;;;;;;;;;5096183;28;20310;-84
2021/07/31 13:52:34;;;;;;;6.05;5.13;;;;;;;;;;5096025;28;20031;-83
2021/07/31 13:55:00;;;;;;;6.13;5.20;;;;;;;;;;5096965;28;20027;-83
2021/07/31 13:57:27;;;;;;;9.73;5.47;;;;;;;;;;5096919;28;20024;-83
2021/07/31 13:59:53;;;;;;;7.30;4.90;;;;;;;;;;5097001;28;20089;-83
2021/07/31 14:02:20;;;;;;;6.88;4.97;;;;;;;;;;5095914;28;20025;-84
2021/07/31 14:04:46;;;;;;;9.95;4.70;;;;;;;;;;5096565;28;20439;-84
2021/07/31 14:07:12;;;;;;;10.68;5.28;;;;;;;;;;5097873;28;20115;-83
2021/07/31 14:09:38;;;;;;;10.15;5.22;;;;;;;;;;5100697;28;20027;-83
2021/07/31 14:12:04;;;;;;;5.70;4.45;;;;;;;;;;5100571;28;20043;-84
2021/07/31 14:14:30;;;;;;;9.32;4.68;;;;;;;;;;5100773;28;20028;-83
2021/07/31 14:16:56;;;;;;;9.65;4.88;;;;;;;;;;5100743;28;20028;-84
2021/07/31 14:19:22;;;;;;;8.80;4.47;;;;;;;;;;5099411;28;20063;-84
2021/07/31 14:21:48;;;;;;;10.15;4.63;;;;;;;;;;5099640;28;20035;-83
2021/07/31 14:24:14;;;;;;;13.35;4.90;;;;;;;;;;5100327;28;20012;-83
2021/07/31 14:26:43;;;;;;;7.88;4.40;;;;;;;;;;5099595;28;20414;-84
2021/07/31 14:29:10;;;;;;;6.53;4.47;;;;;;;;;;5099442;28;20111;-83
2021/07/31 14:31:37;;;;;;;7.47;4.45;;;;;;;;;;5099094;28;20048;-83
2021/07/31 14:34:03;;;;;;;10.07;4.53;;;;;;;;;;5100255;28;20039;-83
2021/07/31 14:36:29;;;;;;;6.07;4.60;;;;;;;;;;5100210;28;20020;-83
2021/07/31 14:38:55;;;;;;;8.93;4.47;;;;;;;;;;5100018;28;20028;-83
2021/07/31 14:41:21;;;;;;;7.07;4.65;;;;;;;;;;5099100;28;20028;-84
2021/07/31 14:43:47;;;;;;;7.82;4.50;;;;;;;;;;5099902;28;20016;-83
2021/07/31 14:46:14;;;;;;;10.07;4.50;;;;;;;;;;5100065;28;20456;-83
2021/07/31 14:48:40;;;;;;;12.57;4.80;;;;;;;;;;5100344;28;20464;-84
2021/07/31 14:51:07;;;;;;;8.93;5.00;;;;;;;;;;5099914;28;20024;-84
2021/07/31 14:53:37;;;;;;;8.13;4.97;;;;;;;;;;5099734;28;20028;-83
2021/07/31 14:56:04;;;;;;;5.70;4.30;;;;;;;;;;5099114;28;20043;-83
2021/07/31 14:58:30;;;;;;;6.57;4.35;;;;;;;;;;5099635;28;20042;-84
2021/07/31 15:00:56;;;;;;;7.03;4.93;;;;;;;;;;5099845;28;20034;-83
2021/07/31 15:03:22;;;;;;;6.20;4.72;;;;;;;;;;5098866;28;20067;-84
2021/07/31 15:05:48;;;;;;;5.97;4.20;;;;;;;;;;5098572;28;20317;-83
2021/07/31 15:08:14;;;;;;;7.38;4.35;;;;;;;;;;5098748;28;20028;-83
2021/07/31 15:10:40;;;;;;;6.53;4.53;;;;;;;;;;5099496;28;20063;-83
2021/07/31 15:13:06;;;;;;;7.50;4.00;;;;;;;;;;5099465;28;20020;-84